Time;durP1;ratioP1;P1;durP2;ratioP2;P2;SDS_P1;SDS_P2;PMS_P1;PMS_P2;Temp;Humidity;BMP_temperature;BMP_pressure;BME280_temperature;BME280_humidity;BME280_pressure;Samples;Min_cycle;Max_cycle;Signal;HPM_P1;HPM_P2
2021/09/17 00:01:39;;;;;;;10.27;9.27;;;;;;;;;;5096595;28;20439;-69
2021/09/17 00:04:06;;;;;;;11.20;10.20;;;;;;;;;;5096864;28;20527;-71
2021/09/17 00:06:33;;;;;;;12.83;10.00;;;;;;;;;;5096819;28;20485;-70
2021/09/17 00:09:02;;;;;;;11.77;9.57;;;;;;;;;;5096851;28;20774;-70
2021/09/17 00:11:29;;;;;;;10.93;9.77;;;;;;;;;;5096731;28;20470;-70
2021/09/17 00:13:57;;;;;;;12.33;10.40;;;;;;;;;;5096399;28;20447;-70
2021/09/17 00:16:24;;;;;;;12.13;10.00;;;;;;;;;;5096677;28;20531;-70
2021/09/17 00:18:51;;;;;;;21.20;11.50;;;;;;;;;;5096614;28;20443;-70
2021/09/17 00:21:18;;;;;;;10.90;8.80;;;;;;;;;;5096269;28;20952;-70
2021/09/17 00:23:45;;;;;;;12.17;9.73;;;;;;;;;;5096518;28;20447;-70
2021/09/17 00:26:14;;;;;;;12.90;10.17;;;;;;;;;;5096187;28;20530;-70
2021/09/17 00:28:41;;;;;;;11.70;10.60;;;;;;;;;;5096421;28;20571;-69
2021/09/17 00:31:08;;;;;;;11.00;9.63;;;;;;;;;;5096414;28;20969;-69
2021/09/17 00:33:36;;;;;;;12.83;10.53;;;;;;;;;;5096495;28;20440;-69
2021/09/17 00:36:03;;;;;;;15.47;11.10;;;;;;;;;;5096675;28;20535;-70
2021/09/17 00:38:31;;;;;;;12.13;11.03;;;;;;;;;;5096495;28;20452;-69
2021/09/17 00:40:58;;;;;;;13.67;9.50;;;;;;;;;;5096055;28;20442;-70
2021/09/17 00:43:26;;;;;;;12.43;11.13;;;;;;;;;;5096352;28;20951;-69
2021/09/17 00:45:54;;;;;;;14.43;11.27;;;;;;;;;;5095904;28;20530;-70
2021/09/17 00:48:21;;;;;;;13.00;11.20;;;;;;;;;;5096141;28;20824;-70
2021/09/17 00:50:48;;;;;;;11.27;10.17;;;;;;;;;;5096615;28;20524;-70
2021/09/17 00:53:15;;;;;;;12.30;10.50;;;;;;;;;;5096043;28;20440;-70
2021/09/17 00:55:42;;;;;;;13.20;10.53;;;;;;;;;;5096062;28;20524;-70
2021/09/17 00:58:10;;;;;;;12.33;10.50;;;;;;;;;;5095782;28;20441;-70
2021/09/17 01:00:38;;;;;;;12.43;11.13;;;;;;;;;;5095930;28;20490;-70
2021/09/17 01:03:06;;;;;;;11.40;10.33;;;;;;;;;;5095331;28;20443;-70
2021/09/17 01:05:33;;;;;;;13.47;11.37;;;;;;;;;;5095428;28;20444;-70
2021/09/17 01:08:00;;;;;;;20.20;12.20;;;;;;;;;;5094185;28;21007;-70
2021/09/17 01:10:27;;;;;;;13.53;11.20;;;;;;;;;;5095404;28;20531;-69
2021/09/17 01:12:55;;;;;;;11.77;10.20;;;;;;;;;;5094923;28;20808;-70
2021/09/17 01:15:22;;;;;;;12.50;10.93;;;;;;;;;;5095229;28;20527;-69
2021/09/17 01:17:51;;;;;;;12.57;11.27;;;;;;;;;;5095232;28;20454;-70
2021/09/17 01:20:20;;;;;;;12.80;11.43;;;;;;;;;;5094846;28;20534;-72
2021/09/17 01:22:49;;;;;;;11.83;10.60;;;;;;;;;;5095214;28;20869;-70
2021/09/17 01:25:18;;;;;;;15.40;11.17;;;;;;;;;;5095075;28;20436;-69
2021/09/17 01:27:47;;;;;;;14.97;12.17;;;;;;;;;;5094494;28;20476;-70
2021/09/17 01:30:15;;;;;;;12.60;11.47;;;;;;;;;;5094911;28;20438;-70
2021/09/17 01:32:42;;;;;;;16.20;12.50;;;;;;;;;;5094608;28;20448;-70
2021/09/17 01:35:10;;;;;;;14.33;11.83;;;;;;;;;;5094596;28;20519;-71
2021/09/17 01:37:37;;;;;;;16.07;13.57;;;;;;;;;;5094843;28;20451;-70
2021/09/17 01:40:07;;;;;;;13.73;12.30;;;;;;;;;;5094993;28;20509;-70
2021/09/17 01:42:35;;;;;;;14.97;13.40;;;;;;;;;;5094723;28;20450;-70
2021/09/17 01:45:02;;;;;;;14.33;11.83;;;;;;;;;;5095184;28;20467;-70
2021/09/17 01:47:29;;;;;;;13.87;12.47;;;;;;;;;;5094576;28;20832;-70
2021/09/17 01:49:56;;;;;;;16.60;12.80;;;;;;;;;;5094630;28;20441;-71
2021/09/17 01:52:23;;;;;;;17.03;11.83;;;;;;;;;;5094247;28;20448;-70
2021/09/17 01:54:51;;;;;;;13.33;11.63;;;;;;;;;;5094192;28;20962;-70
2021/09/17 01:57:19;;;;;;;13.57;12.17;;;;;;;;;;5094484;28;20442;-70
2021/09/17 01:59:47;;;;;;;19.90;12.93;;;;;;;;;;5095045;28;20452;-70
2021/09/17 02:02:14;;;;;;;14.47;13.07;;;;;;;;;;5094024;28;20448;-70
2021/09/17 02:04:41;;;;;;;13.43;12.17;;;;;;;;;;5094039;28;20442;-70
2021/09/17 02:07:08;;;;;;;14.43;12.23;;;;;;;;;;5094301;28;20484;-70
2021/09/17 02:09:36;;;;;;;14.97;12.10;;;;;;;;;;5093932;28;20432;-70
2021/09/17 02:12:03;;;;;;;11.93;10.60;;;;;;;;;;5093873;28;20438;-70
2021/09/17 02:14:32;;;;;;;11.40;10.20;;;;;;;;;;5093794;28;21025;-69
2021/09/17 02:16:59;;;;;;;12.97;11.67;;;;;;;;;;5094011;28;20449;-69
2021/09/17 02:19:26;;;;;;;14.10;12.70;;;;;;;;;;5094026;28;20445;-70
2021/09/17 02:21:55;;;;;;;15.67;11.73;;;;;;;;;;5094437;28;20454;-70
2021/09/17 02:24:23;;;;;;;13.43;12.03;;;;;;;;;;5093975;28;20443;-70
2021/09/17 02:26:50;;;;;;;14.10;12.37;;;;;;;;;;5094151;28;20444;-70
2021/09/17 02:29:17;;;;;;;15.20;12.23;;;;;;;;;;5093374;28;20473;-70
2021/09/17 02:31:46;;;;;;;18.93;12.60;;;;;;;;;;5094261;28;20445;-70
2021/09/17 02:34:13;;;;;;;15.03;13.43;;;;;;;;;;5094001;28;20433;-70
2021/09/17 02:36:40;;;;;;;16.33;13.10;;;;;;;;;;5093747;28;20524;-70
2021/09/17 02:39:07;;;;;;;14.90;12.67;;;;;;;;;;5093438;28;20811;-69
2021/09/17 02:41:35;;;;;;;15.57;13.43;;;;;;;;;;5093633;28;20448;-69
2021/09/17 02:44:02;;;;;;;15.90;13.63;;;;;;;;;;5093620;28;20447;-70
2021/09/17 02:46:29;;;;;;;13.20;11.53;;;;;;;;;;5093276;28;21005;-69
2021/09/17 02:48:59;;;;;;;15.10;13.60;;;;;;;;;;5093270;28;20473;-69
2021/09/17 02:51:26;;;;;;;15.60;14.00;;;;;;;;;;5093593;28;20447;-69
2021/09/17 02:53:53;;;;;;;14.40;12.90;;;;;;;;;;5093145;28;20445;-69
2021/09/17 02:56:20;;;;;;;20.67;14.57;;;;;;;;;;5093388;28;20450;-69
2021/09/17 02:58:48;;;;;;;19.13;14.40;;;;;;;;;;5093117;28;20448;-69
2021/09/17 03:01:15;;;;;;;18.50;15.80;;;;;;;;;;5094068;28;20467;-69
2021/09/17 03:03:42;;;;;;;17.77;15.97;;;;;;;;;;5093190;28;20524;-69
2021/09/17 03:06:11;;;;;;;17.77;15.73;;;;;;;;;;5093299;28;20782;-70
2021/09/17 03:08:38;;;;;;;19.70;17.60;;;;;;;;;;5093233;28;20871;-70
2021/09/17 03:11:05;;;;;;;20.80;16.43;;;;;;;;;;5093288;28;20462;-70
2021/09/17 03:13:32;;;;;;;20.47;16.30;;;;;;;;;;5092877;28;20455;-70
2021/09/17 03:16:00;;;;;;;18.27;16.30;;;;;;;;;;5093628;28;20440;-69
2021/09/17 03:18:27;;;;;;;17.63;15.40;;;;;;;;;;5093555;28;20501;-69
2021/09/17 03:20:54;;;;;;;16.80;15.00;;;;;;;;;;5093173;28;20445;-69
2021/09/17 03:23:23;;;;;;;20.27;15.07;;;;;;;;;;5093767;28;20450;-69
2021/09/17 03:25:50;;;;;;;16.03;14.33;;;;;;;;;;5093705;28;20448;-69
2021/09/17 03:28:17;;;;;;;17.50;14.23;;;;;;;;;;5092964;28;20931;-70
2021/09/17 03:30:45;;;;;;;19.83;14.70;;;;;;;;;;5094150;28;20484;-70
2021/09/17 03:33:12;;;;;;;16.80;14.23;;;;;;;;;;5098379;28;20522;-70
2021/09/17 03:35:39;;;;;;;14.63;13.13;;;;;;;;;;5097588;28;20447;-71
2021/09/17 03:38:07;;;;;;;15.90;14.10;;;;;;;;;;5097496;28;20532;-70
2021/09/17 03:40:36;;;;;;;17.00;15.20;;;;;;;;;;5097176;28;20441;-70
2021/09/17 03:43:04;;;;;;;19.40;16.13;;;;;;;;;;5097125;28;20452;-70
2021/09/17 03:45:32;;;;;;;17.50;14.83;;;;;;;;;;5097331;28;20450;-71
2021/09/17 03:47:59;;;;;;;18.80;16.50;;;;;;;;;;5097612;28;20491;-71
2021/09/17 03:50:26;;;;;;;18.53;15.77;;;;;;;;;;5097006;28;21025;-71
2021/09/17 03:52:53;;;;;;;19.00;16.10;;;;;;;;;;5097283;28;20467;-71
2021/09/17 03:55:20;;;;;;;21.80;17.03;;;;;;;;;;5097296;28;20455;-70
2021/09/17 03:57:49;;;;;;;21.73;19.20;;;;;;;;;;5096882;28;20454;-70
2021/09/17 04:00:16;;;;;;;23.50;19.50;;;;;;;;;;5097661;28;20441;-70
2021/09/17 04:02:44;;;;;;;21.07;18.87;;;;;;;;;;5096744;28;20538;-70
2021/09/17 04:05:11;;;;;;;21.70;19.20;;;;;;;;;;5096707;28;20469;-70
2021/09/17 04:07:39;;;;;;;22.50;19.50;;;;;;;;;;5097304;28;20506;-70
2021/09/17 04:10:07;;;;;;;21.07;18.63;;;;;;;;;;5096803;28;20443;-70
2021/09/17 04:12:34;;;;;;;25.63;19.60;;;;;;;;;;5097325;28;20440;-70
2021/09/17 04:15:02;;;;;;;20.83;18.60;;;;;;;;;;5096825;28;20445;-70
2021/09/17 04:17:30;;;;;;;21.77;18.00;;;;;;;;;;5096811;28;20445;-70
2021/09/17 04:19:57;;;;;;;24.40;19.67;;;;;;;;;;5096690;28;20472;-70
2021/09/17 04:22:24;;;;;;;22.53;19.00;;;;;;;;;;5096462;28;20953;-70
2021/09/17 04:24:53;;;;;;;27.07;21.00;;;;;;;;;;5096701;28;20444;-70
2021/09/17 04:27:20;;;;;;;26.83;21.23;;;;;;;;;;5096644;28;20439;-70
2021/09/17 04:29:47;;;;;;;25.23;20.67;;;;;;;;;;5096260;28;20492;-70
2021/09/17 04:32:16;;;;;;;28.57;21.70;;;;;;;;;;5096544;28;20802;-70
2021/09/17 04:34:44;;;;;;;29.20;23.40;;;;;;;;;;5096420;28;20449;-70
2021/09/17 04:37:11;;;;;;;28.70;22.03;;;;;;;;;;5096418;28;20483;-70
2021/09/17 04:39:38;;;;;;;31.13;22.40;;;;;;;;;;5096040;28;20456;-70
2021/09/17 04:42:06;;;;;;;30.23;25.20;;;;;;;;;;5095210;28;20432;-70
2021/09/17 04:44:33;;;;;;;30.87;23.63;;;;;;;;;;5095760;28;20476;-70
2021/09/17 04:47:00;;;;;;;34.57;26.80;;;;;;;;;;5096582;28;20882;-70
2021/09/17 04:49:29;;;;;;;32.67;24.87;;;;;;;;;;5096522;28;20563;-69
2021/09/17 04:51:56;;;;;;;32.20;25.07;;;;;;;;;;5096059;28;20444;-69
2021/09/17 04:54:23;;;;;;;37.80;28.53;;;;;;;;;;5096122;28;20531;-69
2021/09/17 04:56:50;;;;;;;34.53;26.33;;;;;;;;;;5096136;28;20873;-74
2021/09/17 04:59:18;;;;;;;42.30;28.63;;;;;;;;;;5095589;28;20495;-74
2021/09/17 05:01:45;;;;;;;38.03;27.93;;;;;;;;;;5095699;28;20437;-73
2021/09/17 05:04:12;;;;;;;50.83;32.03;;;;;;;;;;5096059;28;20792;-73
2021/09/17 05:06:41;;;;;;;38.63;29.53;;;;;;;;;;5096179;28;20443;-75
2021/09/17 05:09:08;;;;;;;35.70;25.90;;;;;;;;;;5095740;28;20469;-75
2021/09/17 05:11:35;;;;;;;42.00;30.73;;;;;;;;;;5095426;28;20441;-73
2021/09/17 05:14:02;;;;;;;36.00;27.17;;;;;;;;;;5095717;28;20944;-74
2021/09/17 05:16:32;;;;;;;37.60;27.80;;;;;;;;;;5095560;28;20531;-75
2021/09/17 05:18:59;;;;;;;40.03;29.03;;;;;;;;;;5095291;28;20454;-74
2021/09/17 05:21:26;;;;;;;39.50;29.43;;;;;;;;;;5095358;28;20446;-75
2021/09/17 05:23:55;;;;;;;41.47;29.57;;;;;;;;;;5095758;28;20531;-74
2021/09/17 05:26:22;;;;;;;40.77;28.93;;;;;;;;;;5095112;28;20434;-74
2021/09/17 05:28:50;;;;;;;49.57;33.30;;;;;;;;;;5094869;28;20487;-74
2021/09/17 05:31:17;;;;;;;45.53;34.40;;;;;;;;;;5095479;28;20477;-73
2021/09/17 05:33:44;;;;;;;48.73;32.33;;;;;;;;;;5095049;28;20472;-75
2021/09/17 05:36:12;;;;;;;44.80;30.70;;;;;;;;;;5094921;28;20532;-69
2021/09/17 05:38:39;;;;;;;53.40;34.80;;;;;;;;;;5095195;28;20468;-70
2021/09/17 05:41:07;;;;;;;54.67;32.87;;;;;;;;;;5095146;28;20530;-70
2021/09/17 05:43:35;;;;;;;43.30;30.87;;;;;;;;;;5094748;28;20441;-70
2021/09/17 05:46:07;;;;;;;48.37;31.10;;;;;;;;;;5094946;28;20447;-71
2021/09/17 05:48:34;;;;;;;55.73;34.70;;;;;;;;;;5094942;28;20467;-70
2021/09/17 05:51:02;;;;;;;53.23;32.73;;;;;;;;;;5094927;28;20453;-70
2021/09/17 05:53:29;;;;;;;50.73;33.63;;;;;;;;;;5094892;28;20494;-70
2021/09/17 05:55:56;;;;;;;50.50;33.80;;;;;;;;;;5094903;28;20539;-70
2021/09/17 05:58:30;;;;;;;49.10;34.63;;;;;;;;;;5095024;28;20441;-70
2021/09/17 06:00:57;;;;;;;63.70;36.03;;;;;;;;;;5095327;28;20439;-71
2021/09/17 06:03:24;;;;;;;56.97;33.97;;;;;;;;;;5094418;28;20523;-70
2021/09/17 06:05:58;;;;;;;44.00;31.20;;;;;;;;;;5094699;28;20470;-70
2021/09/17 06:08:25;;;;;;;47.10;33.60;;;;;;;;;;5094285;28;20475;-70
2021/09/17 06:10:52;;;;;;;54.20;34.07;;;;;;;;;;5094632;28;20783;-70
2021/09/17 06:13:19;;;;;;;52.23;33.23;;;;;;;;;;5094960;28;20539;-70
2021/09/17 06:15:48;;;;;;;53.20;35.50;;;;;;;;;;5094225;28;20443;-70
2021/09/17 06:18:15;;;;;;;54.87;35.20;;;;;;;;;;5094266;28;20451;-70
2021/09/17 06:20:42;;;;;;;49.90;34.27;;;;;;;;;;5094805;28;20614;-70
2021/09/17 06:23:10;;;;;;;52.07;35.37;;;;;;;;;;5094385;28;20448;-71
2021/09/17 06:25:37;;;;;;;49.00;34.07;;;;;;;;;;5094337;28;20963;-70
2021/09/17 06:28:05;;;;;;;52.97;34.27;;;;;;;;;;5093712;28;20473;-70
2021/09/17 06:30:33;;;;;;;58.40;34.43;;;;;;;;;;5094456;28;20484;-70
2021/09/17 06:33:01;;;;;;;54.83;33.90;;;;;;;;;;5094054;28;21061;-70
2021/09/17 06:35:29;;;;;;;55.60;35.50;;;;;;;;;;5093910;28;20437;-70
2021/09/17 06:37:56;;;;;;;46.90;33.33;;;;;;;;;;5093758;28;20441;-70
2021/09/17 06:40:25;;;;;;;48.67;32.80;;;;;;;;;;5094315;28;20446;-70
2021/09/17 06:42:54;;;;;;;48.17;35.50;;;;;;;;;;5094284;28;20437;-70
2021/09/17 06:45:21;;;;;;;64.27;36.10;;;;;;;;;;5093939;28;20526;-71
2021/09/17 06:47:49;;;;;;;57.00;38.93;;;;;;;;;;5093920;28;20961;-70
2021/09/17 06:50:19;;;;;;;64.23;39.30;;;;;;;;;;5093550;28;20482;-70
2021/09/17 06:52:50;;;;;;;66.77;41.70;;;;;;;;;;5094077;28;20799;-70
2021/09/17 06:55:17;;;;;;;66.57;40.27;;;;;;;;;;5094003;28;20552;-71
2021/09/17 06:57:46;;;;;;;65.70;36.10;;;;;;;;;;5093644;28;20445;-70
2021/09/17 07:00:13;;;;;;;74.93;42.47;;;;;;;;;;5093501;28;20485;-70
2021/09/17 07:02:40;;;;;;;77.23;41.53;;;;;;;;;;5093441;28;20441;-70
2021/09/17 07:05:08;;;;;;;69.97;39.73;;;;;;;;;;5093240;28;20531;-70
2021/09/17 07:07:37;;;;;;;76.77;43.43;;;;;;;;;;5093174;28;20444;-70
2021/09/17 07:10:05;;;;;;;74.67;42.97;;;;;;;;;;5093365;28;20487;-71
2021/09/17 07:12:32;;;;;;;72.40;42.17;;;;;;;;;;5093226;28;20448;-70
2021/09/17 07:15:00;;;;;;;75.73;45.27;;;;;;;;;;5093816;28;20436;-70
2021/09/17 07:17:27;;;;;;;70.20;39.30;;;;;;;;;;5093430;28;20446;-70
2021/09/17 07:19:54;;;;;;;67.03;39.00;;;;;;;;;;5093225;28;20447;-70
2021/09/17 07:22:21;;;;;;;75.13;42.40;;;;;;;;;;5093531;28;20447;-70
2021/09/17 07:24:50;;;;;;;73.20;41.50;;;;;;;;;;5093145;28;21013;-70
2021/09/17 07:27:17;;;;;;;81.70;42.57;;;;;;;;;;5093428;28;20439;-70
2021/09/17 07:29:45;;;;;;;73.57;44.80;;;;;;;;;;5092820;28;20895;-70
2021/09/17 07:32:12;;;;;;;77.67;45.10;;;;;;;;;;5093189;28;20505;-70
2021/09/17 07:34:39;;;;;;;84.27;44.03;;;;;;;;;;5093669;28;20533;-70
2021/09/17 07:37:07;;;;;;;80.33;45.23;;;;;;;;;;5093335;28;20442;-71
2021/09/17 07:39:34;;;;;;;78.17;45.20;;;;;;;;;;5093998;28;20444;-70
2021/09/17 07:42:03;;;;;;;79.37;41.20;;;;;;;;;;5093332;28;20450;-71
2021/09/17 07:44:30;;;;;;;78.70;44.30;;;;;;;;;;5093297;28;20445;-71
2021/09/17 07:46:58;;;;;;;81.40;44.63;;;;;;;;;;5093538;28;20992;-71
2021/09/17 07:49:25;;;;;;;81.07;45.63;;;;;;;;;;5093337;28;20559;-70
2021/09/17 07:51:52;;;;;;;76.33;43.90;;;;;;;;;;5092815;28;20437;-70
2021/09/17 07:54:20;;;;;;;78.20;45.27;;;;;;;;;;5093155;28;20446;-70
2021/09/17 07:56:47;;;;;;;83.13;44.87;;;;;;;;;;5092832;28;20522;-70
2021/09/17 07:59:15;;;;;;;78.37;44.37;;;;;;;;;;5092986;28;20452;-70
2021/09/17 08:01:43;;;;;;;78.40;44.40;;;;;;;;;;5093205;28;20459;-70
2021/09/17 08:04:10;;;;;;;76.90;45.37;;;;;;;;;;5092836;28;21048;-70
2021/09/17 08:06:37;;;;;;;87.83;47.73;;;;;;;;;;5093118;28;20432;-70
2021/09/17 08:09:06;;;;;;;68.47;41.80;;;;;;;;;;5092928;28;20477;-70
2021/09/17 08:11:34;;;;;;;77.93;42.40;;;;;;;;;;5092982;28;20479;-70
2021/09/17 08:14:01;;;;;;;64.63;43.97;;;;;;;;;;5093049;28;20479;-70
2021/09/17 08:16:30;;;;;;;66.67;40.97;;;;;;;;;;5093060;28;20455;-71
2021/09/17 08:18:57;;;;;;;71.30;42.93;;;;;;;;;;5096714;28;20530;-70
2021/09/17 08:21:24;;;;;;;62.33;39.70;;;;;;;;;;5096988;28;20466;-70
2021/09/17 08:23:51;;;;;;;56.20;38.03;;;;;;;;;;5096693;28;20445;-70
2021/09/17 08:26:19;;;;;;;64.30;39.43;;;;;;;;;;5096122;28;20446;-70
2021/09/17 08:28:46;;;;;;;75.20;41.00;;;;;;;;;;5096026;28;20477;-71
2021/09/17 08:31:13;;;;;;;65.60;40.90;;;;;;;;;;5096552;28;21118;-71
2021/09/17 08:33:43;;;;;;;68.10;41.03;;;;;;;;;;5096356;28;20444;-70
2021/09/17 08:36:10;;;;;;;68.53;40.13;;;;;;;;;;5096147;28;20445;-70
2021/09/17 08:38:38;;;;;;;54.43;38.27;;;;;;;;;;5096424;28;20837;-70
2021/09/17 08:41:06;;;;;;;61.73;38.90;;;;;;;;;;5096427;28;20442;-70
2021/09/17 08:43:33;;;;;;;63.97;39.53;;;;;;;;;;5095941;28;20475;-71
2021/09/17 08:46:00;;;;;;;54.10;38.90;;;;;;;;;;5096454;28;20467;-71
2021/09/17 08:48:28;;;;;;;56.03;37.23;;;;;;;;;;5096052;28;20440;-70
2021/09/17 08:51:00;;;;;;;52.67;35.73;;;;;;;;;;5096072;28;20480;-71
2021/09/17 08:53:31;;;;;;;54.03;35.97;;;;;;;;;;5096180;28;20511;-71
2021/09/17 08:55:58;;;;;;;53.40;33.10;;;;;;;;;;5096045;28;20447;-71
2021/09/17 08:58:25;;;;;;;47.57;34.73;;;;;;;;;;5095981;28;20861;-71
2021/09/17 09:00:55;;;;;;;53.40;34.20;;;;;;;;;;5095889;28;20542;-70
2021/09/17 09:03:29;;;;;;;48.10;32.03;;;;;;;;;;5096638;28;20443;-70
2021/09/17 09:06:10;;;;;;;47.90;30.63;;;;;;;;;;5096337;28;20905;-70
2021/09/17 09:08:39;;;;;;;45.90;34.17;;;;;;;;;;5096229;28;20439;-70
2021/09/17 09:11:14;;;;;;;44.93;31.00;;;;;;;;;;5096181;28;20961;-70
2021/09/17 09:13:57;;;;;;;45.30;34.10;;;;;;;;;;5096588;28;20450;-70
2021/09/17 09:16:24;;;;;;;48.60;34.10;;;;;;;;;;5096030;28;20428;-70
2021/09/17 09:18:51;;;;;;;49.50;34.80;;;;;;;;;;5096285;28;20441;-70
2021/09/17 09:21:25;;;;;;;45.07;32.93;;;;;;;;;;5095516;28;20443;-70
2021/09/17 09:24:08;;;;;;;43.20;31.00;;;;;;;;;;5095771;28;20424;-70
2021/09/17 09:26:36;;;;;;;44.00;31.30;;;;;;;;;;5095649;28;20421;-70
2021/09/17 09:29:03;;;;;;;41.60;30.53;;;;;;;;;;5094764;28;20579;-69
2021/09/17 09:31:40;;;;;;;40.63;27.97;;;;;;;;;;5095303;28;20831;-70
2021/09/17 09:34:07;;;;;;;44.93;28.20;;;;;;;;;;5095640;28;20427;-70
2021/09/17 09:36:36;;;;;;;36.83;26.17;;;;;;;;;;5094934;28;20436;-71
2021/09/17 09:39:04;;;;;;;32.53;25.00;;;;;;;;;;5095208;28;20449;-70
2021/09/17 09:41:32;;;;;;;40.37;27.33;;;;;;;;;;5095321;28;20534;-70
2021/09/17 09:44:00;;;;;;;37.10;27.63;;;;;;;;;;5095445;28;20530;-70
2021/09/17 09:46:28;;;;;;;34.03;24.93;;;;;;;;;;5095108;28;20861;-70
2021/09/17 09:49:02;;;;;;;38.80;26.50;;;;;;;;;;5094950;28;20947;-70
2021/09/17 09:51:31;;;;;;;37.63;26.80;;;;;;;;;;5095138;28;20988;-70
2021/09/17 09:54:00;;;;;;;35.63;25.40;;;;;;;;;;5094856;28;20444;-70
2021/09/17 09:56:28;;;;;;;38.50;23.63;;;;;;;;;;5094807;28;20442;-70
2021/09/17 09:58:55;;;;;;;33.60;24.63;;;;;;;;;;5095028;28;20451;-70
2021/09/17 10:01:23;;;;;;;32.47;22.73;;;;;;;;;;5094811;28;20472;-70
2021/09/17 10:03:52;;;;;;;34.00;24.00;;;;;;;;;;5094470;28;20441;-71
2021/09/17 10:06:19;;;;;;;38.47;25.47;;;;;;;;;;5094818;28;20452;-70
2021/09/17 10:08:47;;;;;;;37.93;25.03;;;;;;;;;;5094610;28;20532;-70
2021/09/17 10:11:16;;;;;;;28.77;22.57;;;;;;;;;;5094505;28;20495;-70
2021/09/17 10:13:44;;;;;;;34.17;22.57;;;;;;;;;;5094546;28;20440;-70
2021/09/17 10:16:11;;;;;;;33.67;22.60;;;;;;;;;;5094549;28;20452;-71
2021/09/17 10:18:38;;;;;;;26.00;19.83;;;;;;;;;;5094754;28;20448;-71
2021/09/17 10:21:06;;;;;;;30.03;21.37;;;;;;;;;;5094360;28;20438;-70
2021/09/17 10:23:34;;;;;;;28.57;21.97;;;;;;;;;;5094408;28;20445;-71
2021/09/17 10:26:02;;;;;;;30.60;21.00;;;;;;;;;;5094004;28;20445;-70
2021/09/17 10:28:31;;;;;;;27.20;21.20;;;;;;;;;;5094009;28;20473;-71
2021/09/17 10:31:10;;;;;;;29.10;20.90;;;;;;;;;;5093891;28;20483;-71
2021/09/17 10:33:38;;;;;;;26.37;20.83;;;;;;;;;;5093968;28;20914;-70
2021/09/17 10:36:05;;;;;;;27.00;19.70;;;;;;;;;;5093910;28;20538;-70
2021/09/17 10:38:33;;;;;;;29.67;20.27;;;;;;;;;;5094181;28;20464;-71
2021/09/17 10:41:04;;;;;;;22.57;19.20;;;;;;;;;;5093166;28;20536;-70
2021/09/17 10:43:38;;;;;;;25.27;20.33;;;;;;;;;;5094174;28;20438;-70
2021/09/17 10:46:06;;;;;;;26.80;20.33;;;;;;;;;;5094110;28;20426;-71
2021/09/17 10:48:49;;;;;;;25.70;19.40;;;;;;;;;;5094082;28;20532;-72
2021/09/17 10:51:28;;;;;;;25.40;20.13;;;;;;;;;;5093544;28;20886;-71
2021/09/17 10:53:57;;;;;;;24.40;20.60;;;;;;;;;;5094147;28;20520;-70
2021/09/17 10:56:24;;;;;;;29.23;19.60;;;;;;;;;;5093817;28;20444;-70
2021/09/17 10:59:06;;;;;;;25.10;18.07;;;;;;;;;;5093954;28;20440;-70
2021/09/17 11:01:49;;;;;;;22.43;18.97;;;;;;;;;;5093423;28;20968;-70
2021/09/17 11:04:23;;;;;;;24.23;19.97;;;;;;;;;;5094090;28;20430;-71
2021/09/17 11:06:51;;;;;;;29.50;22.33;;;;;;;;;;5093764;28;20479;-71
2021/09/17 11:09:38;;;;;;;28.07;21.63;;;;;;;;;;5094499;28;21006;-70
2021/09/17 11:12:14;;;;;;;28.03;21.70;;;;;;;;;;5094256;28;20476;-70
2021/09/17 11:14:42;;;;;;;27.13;22.20;;;;;;;;;;5094025;28;20425;-71
2021/09/17 11:17:10;;;;;;;24.83;21.70;;;;;;;;;;5093808;28;20442;-70
2021/09/17 11:19:37;;;;;;;28.97;21.70;;;;;;;;;;5093260;28;20444;-71
2021/09/17 11:22:06;;;;;;;27.00;22.10;;;;;;;;;;5093252;28;20458;-70
2021/09/17 11:24:36;;;;;;;30.10;24.40;;;;;;;;;;5093470;28;20541;-70
2021/09/17 11:27:05;;;;;;;32.03;25.33;;;;;;;;;;5093306;28;20429;-71
2021/09/17 11:29:32;;;;;;;32.23;21.90;;;;;;;;;;5093085;28;20473;-70
2021/09/17 11:32:03;;;;;;;25.17;22.30;;;;;;;;;;5093130;28;20479;-70
2021/09/17 11:34:32;;;;;;;27.07;20.90;;;;;;;;;;5094083;28;20445;-70
2021/09/17 11:37:01;;;;;;;26.20;22.10;;;;;;;;;;5093788;28;20472;-70
2021/09/17 11:39:29;;;;;;;26.03;20.53;;;;;;;;;;5093390;28;20446;-70
2021/09/17 11:41:58;;;;;;;25.57;21.10;;;;;;;;;;5093151;28;20970;-70
2021/09/17 11:44:43;;;;;;;27.07;20.60;;;;;;;;;;5093498;28;20446;-70
2021/09/17 11:47:12;;;;;;;28.47;21.30;;;;;;;;;;5093173;28;20445;-70
2021/09/17 11:49:42;;;;;;;28.10;22.60;;;;;;;;;;5093157;28;20449;-70
2021/09/17 11:52:10;;;;;;;27.03;22.67;;;;;;;;;;5094483;28;20840;-71
2021/09/17 11:54:37;;;;;;;24.60;20.97;;;;;;;;;;5097188;28;20438;-71
2021/09/17 11:57:06;;;;;;;25.60;21.90;;;;;;;;;;5096908;28;20450;-70
2021/09/17 11:59:34;;;;;;;30.63;23.37;;;;;;;;;;5097435;28;20536;-71
2021/09/17 12:02:12;;;;;;;27.80;22.70;;;;;;;;;;5096842;28;20545;-71
2021/09/17 12:04:41;;;;;;;29.17;22.30;;;;;;;;;;5096790;28;20448;-71
2021/09/17 12:07:09;;;;;;;26.47;22.50;;;;;;;;;;5097033;28;20793;-71
2021/09/17 12:09:36;;;;;;;25.07;20.67;;;;;;;;;;5096724;28;20432;-71
2021/09/17 12:12:04;;;;;;;27.83;22.93;;;;;;;;;;5097152;28;20476;-72
2021/09/17 12:14:31;;;;;;;25.00;19.77;;;;;;;;;;5097068;28;20949;-70
2021/09/17 12:17:02;;;;;;;26.03;20.30;;;;;;;;;;5097658;28;20453;-71
2021/09/17 12:19:30;;;;;;;21.70;16.50;;;;;;;;;;5097377;28;20529;-71
2021/09/17 12:22:03;;;;;;;21.33;16.70;;;;;;;;;;5096732;28;20850;-71
2021/09/17 12:24:31;;;;;;;18.30;15.07;;;;;;;;;;5096577;28;20461;-71
2021/09/17 12:27:00;;;;;;;19.60;15.47;;;;;;;;;;5096286;28;20503;-71
2021/09/17 12:29:28;;;;;;;23.87;18.97;;;;;;;;;;5096837;28;20469;-71
2021/09/17 12:31:55;;;;;;;20.57;16.60;;;;;;;;;;5096361;28;20539;-70
2021/09/17 12:34:24;;;;;;;23.07;17.93;;;;;;;;;;5096541;28;20442;-72
2021/09/17 12:36:52;;;;;;;21.00;18.17;;;;;;;;;;5096446;28;20463;-71
2021/09/17 12:39:23;;;;;;;21.10;16.73;;;;;;;;;;5095926;28;20447;-71
2021/09/17 12:42:05;;;;;;;24.70;19.03;;;;;;;;;;5096707;28;20526;-71
2021/09/17 12:44:39;;;;;;;24.80;18.77;;;;;;;;;;5096043;28;20434;-70
2021/09/17 12:47:06;;;;;;;21.93;17.33;;;;;;;;;;5096425;28;20926;-80
2021/09/17 12:49:33;;;;;;;27.47;18.87;;;;;;;;;;5096187;28;20443;-75
2021/09/17 12:52:01;;;;;;;28.70;20.90;;;;;;;;;;5096518;28;20478;-76
2021/09/17 12:54:35;;;;;;;27.73;21.00;;;;;;;;;;5096077;28;20464;-76
2021/09/17 12:57:15;;;;;;;23.43;18.83;;;;;;;;;;5096168;28;20915;-75
2021/09/17 12:59:57;;;;;;;27.20;20.27;;;;;;;;;;5097098;28;20896;-75
2021/09/17 13:02:25;;;;;;;24.00;18.30;;;;;;;;;;5094971;28;20522;-76
2021/09/17 13:04:58;;;;;;;23.37;18.53;;;;;;;;;;5094465;28;20932;-75
2021/09/17 13:07:25;;;;;;;23.30;19.00;;;;;;;;;;5095611;28;20529;-76
2021/09/17 13:09:54;;;;;;;32.67;20.80;;;;;;;;;;5096074;28;20442;-76
2021/09/17 13:12:21;;;;;;;26.57;18.90;;;;;;;;;;5095215;28;20474;-76
2021/09/17 13:14:48;;;;;;;26.10;19.37;;;;;;;;;;5095732;28;20868;-76
2021/09/17 13:17:16;;;;;;;25.93;20.93;;;;;;;;;;5095670;28;20469;-76
2021/09/17 13:19:43;;;;;;;28.10;20.53;;;;;;;;;;5095098;28;20437;-75
2021/09/17 13:22:10;;;;;;;31.47;21.60;;;;;;;;;;5094994;28;20533;-74
2021/09/17 13:24:37;;;;;;;26.93;21.43;;;;;;;;;;5095415;28;20537;-72
2021/09/17 13:27:06;;;;;;;30.73;20.10;;;;;;;;;;5094870;28;20919;-71
2021/09/17 13:29:33;;;;;;;27.97;21.87;;;;;;;;;;5095756;28;20474;-71
2021/09/17 13:32:00;;;;;;;27.60;22.27;;;;;;;;;;5094757;28;20482;-70
2021/09/17 13:34:28;;;;;;;26.27;22.57;;;;;;;;;;5095204;28;20793;-71
2021/09/17 13:36:55;;;;;;;28.30;21.50;;;;;;;;;;5094892;28;20450;-72
2021/09/17 13:39:22;;;;;;;28.80;22.30;;;;;;;;;;5095324;28;20533;-71
2021/09/17 13:41:49;;;;;;;28.03;21.57;;;;;;;;;;5095184;28;20438;-71
2021/09/17 13:44:18;;;;;;;28.13;21.70;;;;;;;;;;5094659;28;20540;-72
2021/09/17 13:46:45;;;;;;;26.83;21.67;;;;;;;;;;5095032;28;20439;-71
2021/09/17 13:49:12;;;;;;;28.43;22.20;;;;;;;;;;5095184;28;20442;-72
2021/09/17 13:51:40;;;;;;;29.13;24.10;;;;;;;;;;5095172;28;20487;-71
2021/09/17 13:54:07;;;;;;;37.10;24.97;;;;;;;;;;5095113;28;20438;-71
2021/09/17 13:56:34;;;;;;;28.70;23.73;;;;;;;;;;5094966;28;20448;-71
2021/09/17 13:59:01;;;;;;;32.23;21.90;;;;;;;;;;5094688;28;20989;-71
2021/09/17 14:01:30;;;;;;;27.00;22.33;;;;;;;;;;5094779;28;20796;-71
2021/09/17 14:03:57;;;;;;;34.23;24.90;;;;;;;;;;5094442;28;20436;-71
2021/09/17 14:06:25;;;;;;;29.40;25.03;;;;;;;;;;5094689;28;20445;-71
2021/09/17 14:08:52;;;;;;;28.40;22.37;;;;;;;;;;5094396;28;20447;-71
2021/09/17 14:11:19;;;;;;;31.50;24.63;;;;;;;;;;5094232;28;20479;-71
2021/09/17 14:13:46;;;;;;;27.70;23.80;;;;;;;;;;5094290;28;20500;-71
2021/09/17 14:16:13;;;;;;;33.93;23.67;;;;;;;;;;5094841;28;20444;-71
2021/09/17 14:18:42;;;;;;;29.80;23.03;;;;;;;;;;5094877;28;20444;-71
2021/09/17 14:21:09;;;;;;;29.50;23.50;;;;;;;;;;5094695;28;20462;-71
2021/09/17 14:23:36;;;;;;;38.07;23.20;;;;;;;;;;5093919;28;20461;-71